createdAt,value
2023-10-16T00:00:42.579Z,100046.03
2023-10-16T00:03:14.304Z,100049.19
2023-10-16T00:05:50.754Z,100044.16
2023-10-16T00:08:24.116Z,100043.41
2023-10-16T00:10:59.800Z,100046.41
2023-10-16T00:13:36.692Z,100047.19
2023-10-16T00:16:09.905Z,100056.19
2023-10-16T00:18:41.701Z,100055.34
2023-10-16T00:21:16.010Z,100057.59
2023-10-16T00:23:49.059Z,100054.34
2023-10-16T00:26:21.562Z,100051.91
2023-10-16T00:29:02.526Z,100058.09
2023-10-16T00:31:39.171Z,100055.47
2023-10-16T00:34:10.321Z,100061.09
2023-10-16T00:36:41.085Z,100060.34
2023-10-16T00:39:17.769Z,100063.81
2023-10-16T00:41:50.783Z,100061.97
2023-10-16T00:44:23.823Z,100063.00
2023-10-16T00:46:55.493Z,100061.22
2023-10-16T00:49:26.781Z,100057.66
2023-10-16T00:51:57.714Z,100064.75
2023-10-16T00:54:34.203Z,100066.06
2023-10-16T00:57:08.739Z,100067.19
2023-10-16T00:59:41.049Z,100074.94
2023-10-16T01:02:17.140Z,100073.44
2023-10-16T01:04:49.043Z,100072.03
2023-10-16T01:07:21.187Z,100080.94
2023-10-16T01:09:54.663Z,100073.19
2023-10-16T01:12:31.509Z,100065.59
2023-10-16T01:15:02.113Z,100073.34
2023-10-16T01:17:36.555Z,100067.09
2023-10-16T01:20:10.923Z,100076.72
2023-10-16T01:22:41.701Z,100081.88
2023-10-16T01:25:17.375Z,100095.06
2023-10-16T01:27:48.734Z,100092.53
2023-10-16T01:30:20.936Z,100090.75
2023-10-16T01:32:51.706Z,100089.91
2023-10-16T01:35:24.259Z,100099.16
2023-10-16T01:37:56.593Z,100100.22
2023-10-16T01:40:38.854Z,100082.63
2023-10-16T01:43:18.011Z,100071.22
2023-10-16T01:45:55.075Z,100078.06
2023-10-16T01:48:26.114Z,100082.25
2023-10-16T01:50:56.908Z,100083.09
2023-10-16T01:53:34.501Z,100087.84
2023-10-16T01:56:16.469Z,100091.88
2023-10-16T01:58:51.405Z,100088.81
2023-10-16T02:01:24.075Z,100106.69
2023-10-16T02:03:55.337Z,100107.13
2023-10-16T02:06:27.991Z,100115.19
2023-10-16T02:09:01.596Z,100113.88
2023-10-16T02:11:38.308Z,100119.13
2023-10-16T02:14:08.599Z,100128.84
2023-10-16T02:16:43.043Z,100135.78
2023-10-16T02:19:18.171Z,100133.06
2023-10-16T02:21:48.901Z,100141.59
2023-10-16T02:24:19.781Z,100137.00
2023-10-16T02:27:03.555Z,100143.28
2023-10-16T02:29:35.804Z,100130.53
2023-10-16T02:32:06.642Z,100119.56
2023-10-16T02:34:37.724Z,100124.25
2023-10-16T02:37:11.497Z,100131.59
2023-10-16T02:39:43.247Z,100135.22
2023-10-16T02:42:18.048Z,100135.03
2023-10-16T02:44:52.554Z,100139.63
2023-10-16T02:47:28.053Z,100134.66
2023-10-16T02:49:58.933Z,100127.63
2023-10-16T02:52:31.775Z,100140.09
2023-10-16T02:55:02.796Z,100149.94
2023-10-16T02:57:36.848Z,100151.34
2023-10-16T03:00:18.866Z,100146.66
2023-10-16T03:02:53.883Z,100145.34
2023-10-16T03:05:26.756Z,100148.72
2023-10-16T03:07:57.510Z,100157.69
2023-10-16T03:10:27.845Z,100152.28
2023-10-16T03:13:07.204Z,100146.66
2023-10-16T03:15:47.102Z,100147.69
2023-10-16T03:18:23.705Z,100156.47
2023-10-16T03:21:07.818Z,100160.03
2023-10-16T03:23:43.489Z,100168.72
2023-10-16T03:26:21.045Z,100169.00
2023-10-16T03:28:54.626Z,100164.22
2023-10-16T03:31:25.922Z,100148.75
2023-10-16T03:33:57.277Z,100161.31
2023-10-16T03:36:28.043Z,100155.22
2023-10-16T03:39:04.689Z,100154.72
2023-10-16T03:41:40.649Z,100170.13
2023-10-16T03:44:16.122Z,100160.28
2023-10-16T03:46:48.273Z,100173.78
2023-10-16T03:49:19.428Z,100171.00
2023-10-16T03:51:52.311Z,100180.66
2023-10-16T03:54:32.175Z,100183.84
2023-10-16T03:57:09.318Z,100189.50
2023-10-16T03:59:44.278Z,100196.44
2023-10-16T04:02:18.194Z,100208.84
2023-10-16T04:04:49.768Z,100207.91
2023-10-16T04:07:20.523Z,100199.97
2023-10-16T04:09:56.416Z,100202.19
2023-10-16T04:12:27.227Z,100204.88
2023-10-16T04:15:05.724Z,100208.28
2023-10-16T04:17:37.685Z,100207.50
2023-10-16T04:20:22.290Z,100215.44
2023-10-16T04:22:59.896Z,100215.44
2023-10-16T04:25:41.624Z,100215.28
2023-10-16T04:28:20.429Z,100208.16
2023-10-16T04:30:54.298Z,100212.56
2023-10-16T04:33:45.506Z,100217.13
2023-10-16T04:36:37.651Z,100220.59
2023-10-16T04:39:30.426Z,100227.31
2023-10-16T04:42:14.166Z,100224.94
2023-10-16T04:45:24.642Z,100242.84
2023-10-16T04:48:25.057Z,100248.06
2023-10-16T04:51:33.985Z,100233.03
2023-10-16T04:54:18.038Z,100228.91
2023-10-16T04:57:15.498Z,100234.06
2023-10-16T05:00:14.099Z,100235.41
2023-10-16T05:02:53.417Z,100232.38
2023-10-16T05:05:57.796Z,100237.63
2023-10-16T05:09:00.718Z,100252.16
2023-10-16T05:11:37.809Z,100248.16
2023-10-16T05:14:21.171Z,100240.91
2023-10-16T05:17:17.485Z,100250.28
2023-10-16T05:19:46.597Z,100251.97
2023-10-16T05:22:33.037Z,100266.19
2023-10-16T05:25:16.204Z,100262.28
2023-10-16T05:27:59.357Z,100277.06
2023-10-16T05:30:41.962Z,100272.59
2023-10-16T05:33:24.722Z,100280.28
2023-10-16T05:36:07.606Z,100289.06
2023-10-16T05:38:53.294Z,100296.41
2023-10-16T05:41:35.914Z,100287.63
2023-10-16T05:44:18.542Z,100290.25
2023-10-16T05:47:01.723Z,100291.69
2023-10-16T05:49:47.299Z,100294.34
2023-10-16T05:52:32.415Z,100301.66
2023-10-16T05:55:18.182Z,100306.03
2023-10-16T05:58:01.589Z,100305.78
2023-10-16T06:00:45.027Z,100312.28
2023-10-16T06:03:28.200Z,100315.28
2023-10-16T06:06:11.540Z,100321.47
2023-10-16T06:08:54.699Z,100322.00
2023-10-16T06:11:48.004Z,100321.38
2023-10-16T06:14:18.820Z,100316.63
2023-10-16T06:16:55.027Z,100320.28
2023-10-16T06:19:26.016Z,100316.91
2023-10-16T06:22:07.804Z,100330.16
2023-10-16T06:24:43.495Z,100325.09
2023-10-16T06:27:21.397Z,100325.19
2023-10-16T06:29:56.033Z,100320.13
2023-10-16T06:32:32.559Z,100324.97
2023-10-16T06:35:03.943Z,100330.28
2023-10-16T06:37:37.861Z,100323.34
2023-10-16T06:40:18.032Z,100323.28
2023-10-16T06:43:11.114Z,100318.88
2023-10-16T06:45:58.011Z,100313.41
2023-10-16T06:48:30.326Z,100313.59
2023-10-16T06:51:05.828Z,100313.72
2023-10-16T06:53:38.997Z,100318.19
2023-10-16T06:56:15.814Z,100323.72
2023-10-16T06:58:54.448Z,100332.69
2023-10-16T07:01:28.709Z,100331.91
2023-10-16T07:04:02.652Z,100333.31
2023-10-16T07:06:36.413Z,100339.00
2023-10-16T07:09:07.678Z,100338.41
2023-10-16T07:11:43.812Z,100335.16
2023-10-16T07:14:18.965Z,100339.59
2023-10-16T07:16:49.784Z,100338.16
2023-10-16T07:19:23.052Z,100342.34
2023-10-16T07:21:53.435Z,100339.59
2023-10-16T07:24:24.062Z,100333.72
2023-10-16T07:26:57.291Z,100340.63
2023-10-16T07:29:30.747Z,100347.44
2023-10-16T07:32:03.140Z,100348.63
2023-10-16T07:34:34.580Z,100352.13
2023-10-16T07:37:06.211Z,100353.00
2023-10-16T07:39:40.185Z,100362.13
2023-10-16T07:42:11.836Z,100352.91
2023-10-16T07:44:46.893Z,100359.25
2023-10-16T07:47:21.987Z,100359.34
2023-10-16T07:49:52.721Z,100367.75
2023-10-16T07:52:23.070Z,100366.38
2023-10-16T07:54:53.314Z,100363.50
2023-10-16T07:57:25.668Z,100364.56
2023-10-16T08:00:14.811Z,100361.91
2023-10-16T08:02:49.151Z,100358.28
2023-10-16T08:05:20.304Z,100358.22
2023-10-16T08:07:51.140Z,100357.81
2023-10-16T08:10:33.986Z,100367.31
2023-10-16T08:13:13.140Z,100356.56
2023-10-16T08:15:51.187Z,100346.91
2023-10-16T08:18:27.230Z,100355.41
2023-10-16T08:21:07.708Z,100347.38
2023-10-16T08:23:39.701Z,100354.94
2023-10-16T08:26:16.320Z,100349.28
2023-10-16T08:28:49.273Z,100346.41
2023-10-16T08:31:36.721Z,100337.41
2023-10-16T08:34:11.862Z,100339.53
2023-10-16T08:36:42.137Z,100345.31
2023-10-16T08:39:17.283Z,100349.13
2023-10-16T08:41:53.803Z,100353.84
2023-10-16T08:44:27.965Z,100345.97
2023-10-16T08:47:17.531Z,100353.63
2023-10-16T08:49:58.913Z,100357.69
2023-10-16T08:52:36.240Z,100354.47
2023-10-16T08:55:16.333Z,100355.28
2023-10-16T08:57:49.619Z,100364.13
2023-10-16T09:00:24.376Z,100361.34
2023-10-16T09:02:59.650Z,100354.75
2023-10-16T09:05:31.338Z,100359.78
2023-10-16T09:08:02.116Z,100351.69
2023-10-16T09:10:34.792Z,100353.38
2023-10-16T09:13:20.837Z,100348.88
2023-10-16T09:15:56.607Z,100356.97
2023-10-16T09:18:29.271Z,100357.50
2023-10-16T09:21:02.118Z,100349.97
2023-10-16T09:23:37.820Z,100356.53
2023-10-16T09:26:13.098Z,100357.00
2023-10-16T09:28:43.618Z,100355.44
2023-10-16T09:31:19.939Z,100360.59
2023-10-16T09:33:54.169Z,100361.94
2023-10-16T09:36:24.906Z,100368.34
2023-10-16T09:38:58.143Z,100362.91
2023-10-16T09:41:44.773Z,100365.16
2023-10-16T09:44:38.371Z,100359.06
2023-10-16T09:47:25.293Z,100352.78
2023-10-16T09:50:02.313Z,100358.00
2023-10-16T09:52:34.973Z,100354.81
2023-10-16T09:55:07.162Z,100354.31
2023-10-16T09:57:52.148Z,100352.34
2023-10-16T10:00:30.383Z,100348.59
2023-10-16T10:03:13.150Z,100348.34
2023-10-16T10:05:56.751Z,100349.97
2023-10-16T10:08:52.821Z,100348.34
2023-10-16T10:11:39.249Z,100348.38
2023-10-16T10:14:30.477Z,100349.13
2023-10-16T10:17:05.544Z,100338.59
2023-10-16T10:19:44.082Z,100342.31
2023-10-16T10:22:19.697Z,100342.09
2023-10-16T10:24:53.597Z,100337.34
2023-10-16T10:27:27.491Z,100329.28
2023-10-16T10:30:05.037Z,100330.97
2023-10-16T10:32:37.069Z,100329.66
2023-10-16T10:35:28.244Z,100325.63
2023-10-16T10:38:18.814Z,100327.59
2023-10-16T10:41:19.630Z,100322.44
2023-10-16T10:43:51.556Z,100309.72
2023-10-16T10:46:29.988Z,100308.78
2023-10-16T10:49:06.282Z,100312.19
2023-10-16T10:51:38.475Z,100309.13
2023-10-16T10:54:14.254Z,100306.19
2023-10-16T10:56:49.361Z,100309.69
2023-10-16T10:59:42.384Z,100304.94
2023-10-16T11:02:24.020Z,100304.75
2023-10-16T11:05:00.307Z,100303.47
2023-10-16T11:07:41.386Z,100293.22
2023-10-16T11:10:17.405Z,100296.28
2023-10-16T11:12:47.772Z,100289.22
2023-10-16T11:15:23.535Z,100287.19
2023-10-16T11:18:07.163Z,100278.72
2023-10-16T11:20:41.056Z,100281.78
2023-10-16T11:23:14.101Z,100274.88
2023-10-16T11:25:51.510Z,100266.03
2023-10-16T11:28:29.810Z,100271.78
2023-10-16T11:31:02.092Z,100268.06
2023-10-16T11:33:45.842Z,100260.69
2023-10-16T11:36:17.884Z,100262.63
2023-10-16T11:38:49.029Z,100265.31
2023-10-16T11:41:22.267Z,100264.97
2023-10-16T11:43:55.604Z,100257.72
2023-10-16T11:46:35.503Z,100262.53
2023-10-16T11:52:24.521Z,100252.72
2023-10-16T11:55:01.312Z,100260.47
2023-10-16T11:57:36.573Z,100263.78
2023-10-16T12:00:19.971Z,100254.75
2023-10-16T12:02:51.329Z,100249.00
2023-10-16T12:05:22.304Z,100259.84
2023-10-16T12:07:54.005Z,100255.50
2023-10-16T12:10:24.591Z,100246.31
2023-10-16T12:13:00.467Z,100253.91
2023-10-16T12:15:31.345Z,100244.66
2023-10-16T12:18:04.450Z,100250.91
2023-10-16T12:20:37.532Z,100257.81
2023-10-16T12:23:08.444Z,100257.34
2023-10-16T12:25:38.785Z,100266.69
2023-10-16T12:28:11.789Z,100263.13
2023-10-16T12:30:45.919Z,100257.06
2023-10-16T12:33:16.762Z,100254.41
2023-10-16T12:35:49.113Z,100249.75
2023-10-16T12:38:20.710Z,100250.72
2023-10-16T12:40:53.573Z,100245.66
2023-10-16T12:43:32.053Z,100240.78
2023-10-16T12:46:03.184Z,100236.91
2023-10-16T12:48:33.707Z,100238.53
2023-10-16T12:51:12.077Z,100243.00
2023-10-16T12:53:50.468Z,100239.50
2023-10-16T12:56:26.777Z,100240.09
2023-10-16T12:59:01.005Z,100240.34
2023-10-16T13:01:32.202Z,100239.38
2023-10-16T13:04:05.070Z,100235.91
2023-10-16T13:06:35.618Z,100230.66
2023-10-16T13:09:07.536Z,100231.44
2023-10-16T13:11:39.810Z,100226.69
2023-10-16T13:14:14.390Z,100222.94
2023-10-16T13:16:54.671Z,100228.97
2023-10-16T13:19:28.924Z,100224.50
2023-10-16T13:22:10.086Z,100220.22
2023-10-16T13:24:42.531Z,100220.56
2023-10-16T13:27:12.846Z,100221.84
2023-10-16T13:29:47.179Z,100228.50
2023-10-16T13:32:17.570Z,100216.06
2023-10-16T13:34:47.960Z,100219.38
2023-10-16T13:37:19.918Z,100208.44
2023-10-16T13:39:50.231Z,100212.75
2023-10-16T13:42:22.617Z,100219.09
2023-10-16T13:44:59.961Z,100216.63
2023-10-16T13:47:36.056Z,100221.84
2023-10-16T13:50:11.131Z,100213.19
2023-10-16T13:52:43.829Z,100218.59
2023-10-16T13:55:22.111Z,100212.47
2023-10-16T13:58:02.292Z,100206.44
2023-10-16T14:00:39.787Z,100206.88
2023-10-16T14:03:18.705Z,100214.34
2023-10-16T14:05:53.531Z,100219.13
2023-10-16T14:08:28.406Z,100214.78
2023-10-16T14:11:01.547Z,100219.53
2023-10-16T14:13:33.798Z,100211.59
2023-10-16T14:16:12.860Z,100220.53
2023-10-16T14:18:45.234Z,100209.81
2023-10-16T14:21:18.650Z,100215.84
2023-10-16T14:23:52.432Z,100207.88
2023-10-16T14:26:26.018Z,100202.41
2023-10-16T14:29:01.059Z,100207.72
2023-10-16T14:31:37.570Z,100212.34
2023-10-16T14:34:10.111Z,100205.94
2023-10-16T14:36:47.263Z,100210.00
2023-10-16T14:39:18.804Z,100210.84
2023-10-16T14:41:51.388Z,100212.63
2023-10-16T14:44:25.379Z,100210.09
2023-10-16T14:46:59.299Z,100211.13
2023-10-16T14:49:32.215Z,100211.38
2023-10-16T14:52:04.337Z,100210.84
2023-10-16T14:54:34.686Z,100213.19
2023-10-16T14:57:05.594Z,100214.03
2023-10-16T14:59:36.642Z,100208.84
2023-10-16T15:02:12.757Z,100207.75
2023-10-16T15:04:45.921Z,100211.25
2023-10-16T15:07:17.569Z,100212.19
2023-10-16T15:09:48.175Z,100209.69
2023-10-16T15:12:21.315Z,100213.69
2023-10-16T15:14:59.164Z,100218.31
2023-10-16T15:17:51.425Z,100217.13
2023-10-16T15:20:26.270Z,100214.97
2023-10-16T15:22:59.369Z,100229.41
2023-10-16T15:25:30.850Z,100230.56
2023-10-16T15:28:02.612Z,100219.38
2023-10-16T15:30:33.453Z,100228.41
2023-10-16T15:33:13.313Z,100219.56
2023-10-16T15:35:46.510Z,100227.94
2023-10-16T15:38:21.276Z,100231.94
2023-10-16T15:40:51.643Z,100234.84
2023-10-16T15:43:22.169Z,100237.38
2023-10-16T15:45:52.558Z,100240.53
2023-10-16T15:48:31.021Z,100243.25
2023-10-16T15:51:02.007Z,100249.16
2023-10-16T15:53:42.318Z,100250.09
2023-10-16T15:56:12.803Z,100250.25
2023-10-16T15:58:43.660Z,100245.84
2023-10-16T16:01:22.987Z,100251.28
2023-10-16T16:04:02.638Z,100249.53
2023-10-16T16:06:34.875Z,100265.16
2023-10-16T16:09:13.804Z,100265.97
2023-10-16T16:11:45.709Z,100273.28
2023-10-16T16:14:20.076Z,100267.91
2023-10-16T16:16:54.459Z,100275.59
2023-10-16T16:19:29.539Z,100279.22
2023-10-16T16:22:00.321Z,100282.06
2023-10-16T16:24:33.411Z,100288.19
2023-10-16T16:27:08.612Z,100283.75
2023-10-16T16:28:22.160Z,100266.22
2023-10-16T16:29:41.759Z,100283.38
2023-10-16T16:32:14.128Z,100286.47
2023-10-16T16:34:47.625Z,100286.00
2023-10-16T16:37:21.522Z,100294.66
2023-10-16T16:39:52.567Z,100296.59
2023-10-16T16:42:23.873Z,100306.03
2023-10-16T16:44:55.950Z,100302.19
2023-10-16T16:47:26.827Z,100296.88
2023-10-16T16:50:04.700Z,100297.31
2023-10-16T16:52:41.841Z,100292.44
2023-10-16T16:55:16.857Z,100289.47
2023-10-16T16:57:50.619Z,100293.94
2023-10-16T17:00:28.118Z,100293.59
2023-10-16T17:03:03.488Z,100297.22
2023-10-16T17:05:40.367Z,100302.28
2023-10-16T17:08:24.667Z,100293.25
2023-10-16T17:10:57.250Z,100296.72
2023-10-16T17:13:31.760Z,100295.81
2023-10-16T17:16:10.108Z,100294.75
2023-10-16T17:18:45.104Z,100291.09
2023-10-16T17:21:37.371Z,100294.13
2023-10-16T17:24:12.172Z,100295.50
2023-10-16T17:26:45.879Z,100298.53
2023-10-16T17:29:25.760Z,100300.03
2023-10-16T17:31:56.962Z,100310.53
2023-10-16T17:34:28.820Z,100309.25
2023-10-16T17:37:10.931Z,100305.34
2023-10-16T17:39:41.799Z,100319.44
2023-10-16T17:42:15.177Z,100316.34
2023-10-16T17:44:49.100Z,100320.13
2023-10-16T17:47:21.126Z,100311.69
2023-10-16T17:50:00.550Z,100319.16
2023-10-16T17:52:39.917Z,100313.50
2023-10-16T17:55:15.759Z,100314.34
2023-10-16T17:57:46.680Z,100316.44
2023-10-16T18:00:22.178Z,100319.34
2023-10-16T18:02:53.034Z,100327.47
2023-10-16T18:05:27.152Z,100328.63
2023-10-16T18:08:05.921Z,100326.66
2023-10-16T18:10:41.462Z,100332.56
2023-10-16T18:13:14.097Z,100335.38
2023-10-16T18:15:53.105Z,100332.00
2023-10-16T18:18:27.027Z,100347.97
2023-10-16T18:21:02.289Z,100342.06
2023-10-16T18:23:37.696Z,100352.81
2023-10-16T18:26:09.646Z,100346.06
2023-10-16T18:28:42.994Z,100346.44
2023-10-16T18:31:15.177Z,100348.50
2023-10-16T18:33:54.681Z,100351.41
2023-10-16T18:36:30.028Z,100356.47
2023-10-16T18:39:11.321Z,100354.50
2023-10-16T18:41:42.876Z,100357.31
2023-10-16T18:44:15.674Z,100362.75
2023-10-16T18:46:50.255Z,100367.38
2023-10-16T18:49:25.889Z,100364.88
2023-10-16T18:51:57.113Z,100371.50
2023-10-16T18:54:32.860Z,100367.50
2023-10-16T18:57:05.944Z,100365.25
2023-10-16T18:59:37.237Z,100364.31
2023-10-16T19:02:10.613Z,100363.75
2023-10-16T19:04:41.472Z,100373.59
2023-10-16T19:07:15.361Z,100374.72
2023-10-16T19:09:49.749Z,100371.91
2023-10-16T19:12:22.123Z,100382.59
2023-10-16T19:14:55.117Z,100382.59
2023-10-16T19:17:29.193Z,100382.97
2023-10-16T19:20:08.942Z,100385.97
2023-10-16T19:22:45.266Z,100390.38
2023-10-16T19:25:18.839Z,100387.47
2023-10-16T19:27:49.639Z,100388.97
2023-10-16T19:30:21.488Z,100388.22
2023-10-16T19:32:53.695Z,100394.84
2023-10-16T19:35:25.501Z,100391.16
2023-10-16T19:37:56.365Z,100402.81
2023-10-16T19:40:31.344Z,100402.22
2023-10-16T19:43:02.346Z,100402.75
2023-10-16T19:45:33.914Z,100401.31
2023-10-16T19:48:06.238Z,100404.25
2023-10-16T19:50:37.714Z,100404.31
2023-10-16T19:53:10.673Z,100408.91
2023-10-16T19:55:46.388Z,100407.88
2023-10-16T19:58:18.111Z,100423.22
2023-10-16T20:00:49.182Z,100422.06
2023-10-16T20:03:22.213Z,100427.63
2023-10-16T20:05:53.130Z,100426.28
2023-10-16T20:08:24.799Z,100427.63
2023-10-16T20:10:58.163Z,100433.13
2023-10-16T20:13:29.048Z,100434.13
2023-10-16T20:16:00.478Z,100430.84
2023-10-16T20:18:31.212Z,100432.88
2023-10-16T20:21:07.233Z,100427.72
2023-10-16T20:23:38.163Z,100428.91
2023-10-16T20:26:18.226Z,100429.75
2023-10-16T20:28:50.507Z,100435.00
2023-10-16T20:31:26.076Z,100424.91
2023-10-16T20:34:00.706Z,100425.91
2023-10-16T20:36:31.472Z,100429.63
2023-10-16T20:39:02.029Z,100436.75
2023-10-16T20:41:38.063Z,100439.44
2023-10-16T20:44:09.939Z,100427.28
2023-10-16T20:46:40.734Z,100433.09
2023-10-16T20:49:11.055Z,100436.47
2023-10-16T20:51:42.095Z,100431.41
2023-10-16T20:54:13.909Z,100431.31
2023-10-16T20:56:47.405Z,100431.41
2023-10-16T20:59:18.254Z,100434.13
2023-10-16T21:01:51.381Z,100428.28
2023-10-16T21:04:21.681Z,100424.09
2023-10-16T21:06:54.451Z,100428.72
2023-10-16T21:09:25.005Z,100422.28
2023-10-16T21:11:58.471Z,100423.53
2023-10-16T21:14:29.410Z,100431.56
2023-10-16T21:17:00.332Z,100434.25
2023-10-16T21:19:30.811Z,100429.78
2023-10-16T21:22:01.704Z,100433.31
2023-10-16T21:24:32.895Z,100445.03
2023-10-16T21:27:07.694Z,100442.22
2023-10-16T21:29:38.499Z,100438.75
2023-10-16T21:32:11.625Z,100441.44
2023-10-16T21:34:42.409Z,100448.44
2023-10-16T21:37:15.712Z,100447.94
2023-10-16T21:39:48.278Z,100441.94
2023-10-16T21:42:22.218Z,100440.41
2023-10-16T21:44:53.498Z,100447.56
2023-10-16T21:47:24.571Z,100444.25
2023-10-16T21:49:55.807Z,100433.94
2023-10-16T21:52:27.412Z,100433.03
2023-10-16T21:54:59.807Z,100438.50
2023-10-16T21:57:32.964Z,100442.13
2023-10-16T22:00:13.002Z,100438.06
2023-10-16T22:02:47.764Z,100447.03
2023-10-16T22:05:19.582Z,100443.97
2023-10-16T22:07:52.144Z,100443.31
2023-10-16T22:10:24.026Z,100445.22
2023-10-16T22:12:57.319Z,100451.38
2023-10-16T22:15:28.426Z,100447.97
2023-10-16T22:18:03.123Z,100448.28
2023-10-16T22:20:34.238Z,100450.25
2023-10-16T22:23:05.056Z,100448.91
2023-10-16T22:25:37.225Z,100447.19
2023-10-16T22:28:10.516Z,100447.19
2023-10-16T22:30:42.076Z,100447.34
2023-10-16T22:33:13.038Z,100440.44
2023-10-16T22:35:44.269Z,100445.66
2023-10-16T22:38:14.984Z,100444.72
2023-10-16T22:40:46.334Z,100450.09
2023-10-16T22:43:18.944Z,100443.75
2023-10-16T22:45:49.941Z,100450.03
2023-10-16T22:48:20.771Z,100451.03
2023-10-16T22:50:52.305Z,100454.56
2023-10-16T22:53:23.082Z,100454.72
2023-10-16T22:55:54.190Z,100454.06
2023-10-16T22:58:28.309Z,100446.94
2023-10-16T23:01:02.062Z,100450.69
2023-10-16T23:03:33.045Z,100450.09
2023-10-16T23:06:04.007Z,100451.22
2023-10-16T23:08:40.464Z,100454.31
2023-10-16T23:11:19.400Z,100456.31
2023-10-16T23:13:55.273Z,100458.72
2023-10-16T23:16:27.582Z,100458.31
2023-10-16T23:19:10.312Z,100463.59
2023-10-16T23:21:44.014Z,100457.75
2023-10-16T23:24:14.647Z,100457.69
2023-10-16T23:26:45.470Z,100463.59
2023-10-16T23:29:21.236Z,100465.44
2023-10-16T23:31:56.470Z,100465.72
2023-10-16T23:34:27.878Z,100465.06
2023-10-16T23:37:04.490Z,100466.63
2023-10-16T23:39:35.564Z,100457.19
2023-10-16T23:42:18.529Z,100457.09
2023-10-16T23:44:52.185Z,100458.03
2023-10-16T23:47:23.070Z,100450.25
2023-10-16T23:49:53.803Z,100437.97
2023-10-16T23:52:38.049Z,100439.75
2023-10-16T23:55:15.289Z,100442.63
2023-10-16T23:57:52.860Z,100431.34
